createdAt,value
2023-03-03T00:01:06.163Z,85.35
2023-03-03T00:03:33.514Z,85.70
2023-03-03T00:06:00.486Z,85.64
2023-03-03T00:08:27.726Z,85.93
2023-03-03T00:10:55.598Z,85.50
2023-03-03T00:13:24.781Z,85.80
2023-03-03T00:15:52.612Z,85.99
2023-03-03T00:18:36.666Z,86.04
2023-03-03T00:21:22.626Z,85.99
2023-03-03T00:23:49.670Z,86.23
2023-03-03T00:26:31.009Z,86.70
2023-03-03T00:28:58.075Z,87.52
2023-03-03T00:31:35.476Z,87.68
2023-03-03T00:34:26.598Z,88.02
2023-03-03T00:36:56.265Z,88.00
2023-03-03T00:39:30.795Z,88.63
2023-03-03T00:42:00.581Z,88.59
2023-03-03T00:44:27.849Z,88.86
2023-03-03T00:46:54.810Z,88.86
2023-03-03T00:49:27.384Z,88.84
2023-03-03T00:51:54.690Z,88.88
2023-03-03T00:54:21.623Z,88.68
2023-03-03T00:56:48.666Z,88.37
2023-03-03T00:59:15.559Z,88.35
2023-03-03T01:01:42.666Z,88.42
2023-03-03T01:04:09.653Z,87.93
2023-03-03T01:06:36.620Z,87.92
2023-03-03T01:09:03.472Z,88.08
2023-03-03T01:11:30.764Z,88.00
2023-03-03T01:13:57.706Z,87.82
2023-03-03T01:16:27.026Z,87.80
2023-03-03T01:18:54.018Z,87.66
2023-03-03T01:21:22.312Z,87.32
2023-03-03T01:23:49.149Z,87.71
2023-03-03T01:26:16.295Z,87.97
2023-03-03T01:28:43.159Z,88.56
2023-03-03T01:31:10.593Z,88.69
2023-03-03T01:33:38.249Z,88.92
2023-03-03T01:36:05.664Z,88.62
2023-03-03T01:38:36.187Z,88.22
2023-03-03T01:41:03.512Z,88.50
2023-03-03T01:43:32.172Z,88.82
2023-03-03T01:45:59.111Z,89.15
2023-03-03T01:48:32.946Z,88.79
2023-03-03T01:51:03.965Z,88.65
2023-03-03T01:53:42.756Z,89.12
2023-03-03T01:56:10.410Z,89.36
2023-03-03T01:58:43.558Z,89.31
2023-03-03T02:01:15.837Z,89.20
2023-03-03T02:03:43.989Z,89.53
2023-03-03T02:06:16.796Z,89.52
2023-03-03T02:09:05.213Z,89.25
2023-03-03T02:11:36.444Z,89.29
2023-03-03T02:14:03.385Z,89.53
2023-03-03T02:16:30.914Z,89.24
2023-03-03T02:18:58.109Z,89.60
2023-03-03T02:21:29.200Z,89.66
2023-03-03T02:24:27.599Z,89.37
2023-03-03T02:26:54.610Z,89.36
2023-03-03T02:29:22.020Z,89.51
2023-03-03T02:31:49.320Z,89.32
2023-03-03T02:34:16.224Z,89.35
2023-03-03T02:36:43.244Z,89.27
2023-03-03T02:39:23.323Z,88.84
2023-03-03T02:42:10.011Z,88.77
2023-03-03T02:44:42.492Z,88.21
2023-03-03T02:47:09.635Z,88.08
2023-03-03T02:49:38.156Z,87.99
2023-03-03T02:52:09.776Z,87.64
2023-03-03T02:54:38.896Z,87.88
2023-03-03T02:57:07.258Z,87.95
2023-03-03T02:59:34.185Z,88.06
2023-03-03T03:02:08.981Z,88.01
2023-03-03T03:04:36.235Z,87.78
2023-03-03T03:07:04.348Z,87.84
2023-03-03T03:09:36.105Z,87.58
2023-03-03T03:12:03.367Z,87.60
2023-03-03T03:14:33.256Z,87.46
2023-03-03T03:17:01.564Z,87.78
2023-03-03T03:19:29.282Z,87.82
2023-03-03T03:21:59.332Z,87.97
2023-03-03T03:24:27.099Z,88.20
2023-03-03T03:26:58.937Z,88.00
2023-03-03T03:29:27.322Z,88.01
2023-03-03T03:31:54.417Z,88.31
2023-03-03T03:34:21.305Z,88.00
2023-03-03T03:36:50.145Z,88.23
2023-03-03T03:39:18.812Z,88.29
2023-03-03T03:41:48.023Z,88.38
2023-03-03T03:44:14.924Z,88.59
2023-03-03T03:46:42.863Z,88.58
2023-03-03T03:49:10.717Z,88.74
2023-03-03T03:51:41.447Z,88.91
2023-03-03T03:54:11.114Z,88.77
2023-03-03T03:56:39.454Z,88.87
2023-03-03T03:59:07.555Z,88.91
2023-03-03T04:01:35.061Z,88.97
2023-03-03T04:04:04.172Z,89.14
2023-03-03T04:06:32.433Z,89.42
2023-03-03T04:08:59.864Z,89.57
2023-03-03T04:11:28.468Z,89.33
2023-03-03T04:13:55.467Z,89.59
2023-03-03T04:16:22.565Z,89.40
2023-03-03T04:18:49.533Z,89.59
2023-03-03T04:21:17.900Z,89.67
2023-03-03T04:23:46.390Z,89.81
2023-03-03T04:26:13.541Z,89.96
2023-03-03T04:28:42.210Z,90.26
2023-03-03T04:31:10.671Z,89.96
2023-03-03T04:33:38.012Z,90.01
2023-03-03T04:36:06.532Z,90.45
2023-03-03T04:38:33.557Z,90.34
2023-03-03T04:41:00.678Z,90.79
2023-03-03T04:43:31.873Z,90.88
2023-03-03T04:45:59.040Z,90.93
2023-03-03T04:48:26.182Z,91.03
2023-03-03T04:50:53.488Z,91.23
2023-03-03T04:53:21.405Z,91.25
2023-03-03T04:55:51.165Z,91.44
2023-03-03T04:58:19.345Z,91.61
2023-03-03T05:00:47.329Z,91.75
2023-03-03T05:03:14.404Z,91.42
2023-03-03T05:05:42.588Z,91.82
2023-03-03T05:08:09.484Z,91.98
2023-03-03T05:10:36.977Z,92.00
2023-03-03T05:13:04.923Z,92.06
2023-03-03T05:15:32.653Z,92.05
2023-03-03T05:17:59.717Z,91.90
2023-03-03T05:20:26.923Z,92.07
2023-03-03T05:22:54.872Z,92.00
2023-03-03T05:25:22.135Z,91.76
2023-03-03T05:27:49.185Z,91.98
2023-03-03T05:30:16.644Z,91.73
2023-03-03T05:32:43.637Z,91.75
2023-03-03T05:35:10.825Z,91.58
2023-03-03T05:37:40.116Z,91.68
2023-03-03T05:40:07.315Z,91.69
2023-03-03T05:42:53.186Z,91.31
2023-03-03T05:45:21.522Z,91.09
2023-03-03T05:47:48.482Z,91.21
2023-03-03T05:50:16.902Z,90.99
2023-03-03T05:52:43.955Z,90.60
2023-03-03T05:55:11.411Z,90.54
2023-03-03T05:57:39.232Z,90.85
2023-03-03T06:00:07.066Z,90.87
2023-03-03T06:02:40.069Z,90.50
2023-03-03T06:05:08.501Z,90.47
2023-03-03T06:07:36.164Z,90.25
2023-03-03T06:10:03.805Z,89.37
2023-03-03T06:12:33.552Z,89.41
2023-03-03T06:15:00.499Z,89.48
2023-03-03T06:17:27.344Z,88.83
2023-03-03T06:19:54.342Z,88.79
2023-03-03T06:22:21.293Z,88.76
2023-03-03T06:24:48.101Z,87.73
2023-03-03T06:27:15.299Z,87.46
2023-03-03T06:29:42.206Z,87.76
2023-03-03T06:32:09.351Z,87.78
2023-03-03T06:34:36.304Z,87.76
2023-03-03T06:37:03.330Z,87.64
2023-03-03T06:39:30.223Z,87.18
2023-03-03T06:41:57.190Z,87.22
2023-03-03T06:44:24.271Z,86.98
2023-03-03T06:46:51.183Z,86.78
2023-03-03T06:49:18.119Z,86.66
2023-03-03T06:51:46.513Z,86.51
2023-03-03T06:54:16.601Z,86.36
2023-03-03T06:56:44.998Z,86.61
2023-03-03T06:59:17.309Z,86.86
2023-03-03T07:01:45.767Z,86.19
2023-03-03T07:04:25.781Z,85.56
2023-03-03T07:06:52.872Z,85.39
2023-03-03T07:09:26.468Z,85.38
2023-03-03T07:12:01.788Z,85.37
2023-03-03T07:14:29.942Z,84.92
2023-03-03T07:17:00.295Z,84.94
2023-03-03T07:19:35.750Z,84.70
2023-03-03T07:22:25.391Z,83.92
2023-03-03T07:24:55.348Z,83.34
2023-03-03T07:27:27.930Z,83.91
2023-03-03T07:30:15.181Z,83.76
2023-03-03T07:32:49.224Z,83.72
2023-03-03T07:35:39.110Z,83.96
2023-03-03T07:38:40.832Z,83.63
2023-03-03T07:41:27.656Z,83.43
2023-03-03T07:44:00.150Z,83.16
2023-03-03T07:46:48.503Z,82.91
2023-03-03T07:49:25.196Z,82.62
2023-03-03T07:51:57.415Z,82.41
2023-03-03T07:54:28.962Z,82.68
2023-03-03T07:57:02.235Z,82.49
2023-03-03T07:59:30.295Z,82.59
2023-03-03T08:02:01.568Z,82.04
2023-03-03T08:04:52.759Z,81.78
2023-03-03T08:07:23.280Z,81.84
2023-03-03T08:09:51.995Z,81.64
2023-03-03T08:12:28.512Z,81.08
2023-03-03T08:14:58.122Z,80.64
2023-03-03T08:17:34.326Z,80.93
2023-03-03T08:20:01.438Z,81.19
2023-03-03T08:22:35.766Z,81.21
2023-03-03T08:25:03.008Z,81.48
2023-03-03T08:27:30.515Z,81.46
2023-03-03T08:30:16.374Z,81.83
2023-03-03T08:32:43.543Z,81.59
2023-03-03T08:35:10.602Z,81.07
2023-03-03T08:37:37.851Z,81.46
2023-03-03T08:40:05.142Z,81.19
2023-03-03T08:42:32.195Z,81.25
2023-03-03T08:44:59.113Z,81.45
2023-03-03T08:47:26.219Z,81.60
2023-03-03T08:49:54.530Z,81.93
2023-03-03T08:52:24.660Z,81.62
2023-03-03T08:54:51.476Z,81.26
2023-03-03T08:57:18.950Z,81.44
2023-03-03T08:59:47.926Z,81.65
2023-03-03T09:02:15.484Z,80.78
2023-03-03T09:04:42.377Z,80.19
2023-03-03T09:07:09.691Z,79.50
2023-03-03T09:09:37.515Z,79.76
2023-03-03T09:12:29.324Z,78.79
2023-03-03T09:15:00.173Z,78.23
2023-03-03T09:17:31.331Z,78.05
2023-03-03T09:20:11.297Z,77.21
2023-03-03T09:22:39.421Z,76.32
2023-03-03T09:25:22.293Z,75.45
2023-03-03T09:27:52.733Z,75.25
2023-03-03T09:30:39.631Z,75.32
2023-03-03T09:33:27.731Z,74.63
2023-03-03T09:36:21.413Z,74.79
2023-03-03T09:38:48.867Z,74.59
2023-03-03T09:41:34.528Z,74.71
2023-03-03T09:44:07.312Z,74.60
2023-03-03T09:46:37.074Z,74.47
2023-03-03T09:49:18.493Z,73.75
2023-03-03T09:51:52.473Z,73.81
2023-03-03T09:55:13.695Z,73.50
2023-03-03T09:58:10.009Z,73.18
2023-03-03T10:00:55.790Z,73.01
2023-03-03T10:03:40.634Z,72.52
2023-03-03T10:06:20.813Z,72.23
2023-03-03T10:09:06.506Z,72.18
2023-03-03T10:11:43.050Z,71.67
2023-03-03T10:14:38.706Z,71.82
2023-03-03T10:17:20.786Z,72.10
2023-03-03T10:20:08.598Z,72.03
2023-03-03T10:22:41.812Z,72.29
2023-03-03T10:25:17.975Z,72.45
2023-03-03T10:27:47.788Z,72.81
2023-03-03T10:30:40.863Z,72.83
2023-03-03T10:33:41.439Z,72.60
2023-03-03T10:36:14.622Z,72.95
2023-03-03T10:39:05.106Z,73.25
2023-03-03T10:41:38.274Z,73.10
2023-03-03T10:44:05.097Z,72.72
2023-03-03T10:47:00.082Z,72.88
2023-03-03T10:49:33.268Z,73.42
2023-03-03T10:52:33.860Z,73.94
2023-03-03T10:55:26.416Z,74.54
2023-03-03T10:58:22.264Z,74.92
2023-03-03T11:00:55.196Z,75.09
2023-03-03T11:03:43.247Z,75.38
2023-03-03T11:06:19.601Z,75.21
2023-03-03T11:08:53.304Z,75.02
2023-03-03T11:11:29.948Z,75.34
2023-03-03T11:14:02.214Z,75.66
2023-03-03T11:16:47.296Z,76.14
2023-03-03T11:19:20.886Z,76.07
2023-03-03T11:22:01.967Z,76.38
2023-03-03T11:24:51.282Z,76.96
2023-03-03T11:27:30.686Z,77.09
2023-03-03T11:30:12.932Z,77.12
2023-03-03T11:33:06.750Z,76.81
2023-03-03T11:36:04.922Z,77.12
2023-03-03T11:38:40.893Z,77.20
2023-03-03T11:41:52.308Z,77.74
2023-03-03T11:44:31.947Z,77.79
2023-03-03T11:47:13.459Z,77.84
2023-03-03T11:49:50.716Z,78.26
2023-03-03T11:52:29.589Z,78.86
2023-03-03T11:55:05.829Z,79.21
2023-03-03T11:57:40.939Z,79.65
2023-03-03T12:00:26.679Z,80.24
2023-03-03T12:02:59.707Z,80.67
2023-03-03T12:05:48.483Z,80.95
2023-03-03T12:08:43.705Z,80.01
2023-03-03T12:11:27.791Z,79.38
2023-03-03T12:14:19.304Z,78.29
2023-03-03T12:16:52.527Z,77.77
2023-03-03T12:19:46.177Z,78.53
2023-03-03T12:22:31.799Z,78.15
2023-03-03T12:25:10.638Z,78.60
2023-03-03T12:27:56.521Z,77.75
2023-03-03T12:30:38.575Z,78.14
2023-03-03T12:33:17.450Z,78.50
2023-03-03T12:36:05.963Z,78.79
2023-03-03T12:39:10.539Z,78.20
2023-03-03T12:42:05.747Z,79.08
2023-03-03T12:44:45.020Z,79.30
2023-03-03T12:47:34.026Z,79.82
2023-03-03T12:50:10.298Z,81.09
2023-03-03T12:52:51.589Z,81.90
2023-03-03T12:55:44.325Z,83.69
2023-03-03T12:58:34.360Z,84.42
2023-03-03T13:01:12.185Z,87.12
2023-03-03T13:04:22.294Z,87.95
2023-03-03T13:06:57.665Z,88.13
2023-03-03T13:09:24.643Z,88.98
2023-03-03T13:12:11.441Z,88.45
2023-03-03T13:14:53.694Z,88.16
2023-03-03T13:17:31.259Z,87.90
2023-03-03T13:20:04.785Z,88.45
2023-03-03T13:22:36.598Z,88.88
2023-03-03T13:25:17.225Z,88.60
2023-03-03T13:27:47.879Z,86.61
2023-03-03T13:30:22.449Z,86.21
2023-03-03T13:33:24.816Z,86.21
2023-03-03T13:36:03.382Z,85.58
2023-03-03T13:38:33.840Z,84.28
2023-03-03T13:41:07.166Z,81.29
2023-03-03T13:43:42.759Z,79.95
2023-03-03T13:46:28.457Z,80.33
2023-03-03T13:49:20.061Z,81.90
2023-03-03T13:52:15.324Z,83.01
2023-03-03T13:55:04.173Z,83.89
2023-03-03T13:58:01.248Z,85.70
2023-03-03T14:00:49.356Z,87.18
2023-03-03T14:03:33.163Z,87.75
2023-03-03T14:06:05.124Z,88.09
2023-03-03T14:09:02.128Z,88.30
2023-03-03T14:11:48.022Z,88.02
2023-03-03T14:14:27.108Z,88.01
2023-03-03T14:17:06.243Z,87.82
2023-03-03T14:19:57.642Z,87.97
2023-03-03T14:22:53.893Z,88.49
2023-03-03T14:25:21.111Z,88.67
2023-03-03T14:27:48.095Z,89.04
2023-03-03T14:30:33.456Z,89.41
2023-03-03T14:33:15.001Z,89.59
2023-03-03T14:35:50.433Z,89.93
2023-03-03T14:38:20.334Z,89.70
2023-03-03T14:40:48.391Z,89.49
2023-03-03T14:43:24.598Z,89.99
2023-03-03T14:45:53.645Z,89.75
2023-03-03T14:48:25.814Z,89.79
2023-03-03T14:51:04.659Z,89.87
2023-03-03T14:53:35.822Z,88.95
2023-03-03T14:56:26.007Z,88.75
2023-03-03T14:58:55.384Z,88.58
2023-03-03T15:01:22.380Z,87.09
2023-03-03T15:04:00.388Z,87.35
2023-03-03T15:06:52.357Z,87.82
2023-03-03T15:09:38.324Z,88.29
2023-03-03T15:12:26.260Z,88.74
2023-03-03T15:15:11.313Z,88.84
2023-03-03T15:17:43.466Z,89.09
2023-03-03T15:20:13.421Z,88.92
2023-03-03T15:22:51.202Z,88.79
2023-03-03T15:25:43.850Z,88.86
2023-03-03T15:28:14.497Z,88.99
2023-03-03T15:30:49.540Z,89.45
2023-03-03T15:33:30.595Z,90.15
2023-03-03T15:36:08.057Z,90.89
2023-03-03T15:38:43.345Z,90.75
2023-03-03T15:41:25.855Z,91.07
2023-03-03T15:44:05.858Z,91.03
2023-03-03T15:46:48.251Z,90.91
2023-03-03T15:49:52.942Z,90.42
2023-03-03T15:52:54.580Z,90.28
2023-03-03T15:55:30.622Z,89.90
2023-03-03T15:58:36.454Z,89.91
2023-03-03T16:01:33.281Z,90.38
2023-03-03T16:04:09.650Z,90.29
2023-03-03T16:07:04.025Z,90.55
2023-03-03T16:09:43.025Z,90.20
2023-03-03T16:12:37.802Z,90.54
2023-03-03T16:15:04.729Z,90.69
2023-03-03T16:17:37.780Z,90.67
2023-03-03T16:20:25.627Z,91.00
2023-03-03T16:23:31.807Z,91.34
2023-03-03T16:26:17.533Z,91.17
2023-03-03T16:29:03.947Z,91.53
2023-03-03T16:31:53.939Z,91.92
2023-03-03T16:35:19.182Z,92.06
2023-03-03T16:37:59.815Z,92.26
2023-03-03T16:40:51.313Z,92.48
2023-03-03T16:43:49.431Z,92.42
2023-03-03T16:46:16.435Z,92.10
2023-03-03T16:48:54.984Z,92.28
2023-03-03T16:51:43.965Z,92.64
2023-03-03T16:54:16.458Z,92.72
2023-03-03T16:57:06.351Z,92.87
2023-03-03T16:59:45.860Z,92.91
2023-03-03T17:02:34.013Z,92.77
2023-03-03T17:05:38.562Z,92.83
2023-03-03T17:08:35.091Z,92.95
2023-03-03T17:11:11.558Z,92.92
2023-03-03T17:14:15.493Z,92.93
2023-03-03T17:16:54.800Z,93.12
2023-03-03T17:19:41.568Z,93.37
2023-03-03T17:22:11.769Z,93.67
2023-03-03T17:24:48.195Z,93.53
2023-03-03T17:27:52.322Z,93.29
2023-03-03T17:31:00.761Z,93.41
2023-03-03T17:33:48.997Z,92.93
2023-03-03T17:36:32.886Z,93.12
2023-03-03T17:39:02.717Z,93.28
2023-03-03T17:41:42.718Z,93.29
2023-03-03T17:44:12.449Z,93.20
2023-03-03T17:46:55.538Z,93.07
2023-03-03T17:49:33.498Z,93.11
2023-03-03T17:52:26.198Z,93.13
2023-03-03T17:55:11.300Z,92.79
2023-03-03T17:57:42.197Z,92.92
2023-03-03T18:00:40.101Z,92.78
2023-03-03T18:03:39.421Z,92.53
2023-03-03T18:06:17.619Z,92.58
2023-03-03T18:09:14.054Z,92.35
2023-03-03T18:12:05.065Z,92.25
2023-03-03T18:14:46.917Z,92.50
2023-03-03T18:17:25.909Z,92.48
2023-03-03T18:20:04.881Z,92.56
2023-03-03T18:22:53.119Z,92.08
2023-03-03T18:26:00.020Z,91.95
2023-03-03T18:28:44.920Z,91.66
2023-03-03T18:31:26.340Z,91.69
2023-03-03T18:34:21.439Z,91.50
2023-03-03T18:36:58.779Z,91.62
2023-03-03T18:39:45.616Z,91.69
2023-03-03T18:42:32.665Z,91.95
2023-03-03T18:45:23.104Z,91.82
2023-03-03T18:48:10.275Z,91.59
2023-03-03T18:50:49.348Z,91.50
2023-03-03T18:53:25.218Z,91.32
2023-03-03T18:55:54.964Z,91.33
2023-03-03T18:58:30.368Z,91.04
2023-03-03T19:01:33.473Z,91.14
2023-03-03T19:04:20.365Z,90.88
2023-03-03T19:06:47.425Z,90.98
2023-03-03T19:09:20.335Z,90.96
2023-03-03T19:11:56.513Z,91.34
2023-03-03T19:14:27.758Z,91.50
2023-03-03T19:16:56.468Z,91.60
2023-03-03T19:19:29.461Z,91.81
2023-03-03T19:22:25.328Z,91.28
2023-03-03T19:25:15.996Z,91.51
2023-03-03T19:28:17.317Z,91.65
2023-03-03T19:30:56.984Z,91.55
2023-03-03T19:34:19.809Z,91.37
2023-03-03T19:37:14.911Z,90.97
2023-03-03T19:39:50.707Z,90.70
2023-03-03T19:42:29.752Z,90.59
2023-03-03T19:45:33.003Z,90.81
2023-03-03T19:48:06.127Z,90.87
2023-03-03T19:51:11.932Z,91.24
2023-03-03T19:53:38.839Z,91.05
2023-03-03T19:56:11.773Z,91.44
2023-03-03T19:59:04.621Z,91.59
2023-03-03T20:01:54.715Z,91.16
2023-03-03T20:04:30.463Z,90.85
2023-03-03T20:07:33.357Z,91.15
2023-03-03T20:10:12.454Z,91.00
2023-03-03T20:12:45.361Z,90.91
2023-03-03T20:15:24.436Z,91.06
2023-03-03T20:17:55.644Z,90.56
2023-03-03T20:20:49.840Z,91.17
2023-03-03T20:23:28.458Z,91.64
2023-03-03T20:26:29.304Z,92.11
2023-03-03T20:29:39.267Z,92.18
2023-03-03T20:32:11.850Z,92.09
2023-03-03T20:34:57.690Z,91.74
2023-03-03T20:37:34.960Z,92.03
2023-03-03T20:40:15.838Z,91.95
2023-03-03T20:43:06.927Z,91.97
2023-03-03T20:45:55.671Z,92.04
2023-03-03T20:48:41.693Z,92.47
2023-03-03T20:51:22.007Z,92.88
2023-03-03T20:53:58.200Z,92.74
2023-03-03T20:56:51.580Z,93.12
2023-03-03T20:59:32.410Z,93.33
2023-03-03T21:02:24.305Z,93.07
2023-03-03T21:05:10.260Z,93.19
2023-03-03T21:07:41.081Z,93.37
2023-03-03T21:10:16.878Z,93.57
2023-03-03T21:12:43.955Z,93.65
2023-03-03T21:15:32.208Z,93.56
2023-03-03T21:18:00.219Z,93.67
2023-03-03T21:20:35.125Z,93.99
2023-03-03T21:23:02.676Z,94.41
2023-03-03T21:25:46.781Z,94.60
2023-03-03T21:28:17.350Z,94.93
2023-03-03T21:31:02.609Z,94.96
2023-03-03T21:33:58.753Z,94.95
2023-03-03T21:36:34.536Z,94.87
2023-03-03T21:39:04.312Z,94.88
2023-03-03T21:41:51.108Z,94.75
2023-03-03T21:44:44.676Z,94.78
2023-03-03T21:47:15.005Z,94.48
2023-03-03T21:49:43.944Z,94.98
2023-03-03T21:52:11.835Z,94.73
2023-03-03T21:54:39.047Z,94.56
2023-03-03T21:57:06.153Z,93.91
2023-03-03T21:59:33.021Z,94.20
2023-03-03T22:02:00.009Z,94.20
2023-03-03T22:04:26.999Z,94.00
2023-03-03T22:06:54.265Z,94.30
2023-03-03T22:09:21.715Z,94.20
2023-03-03T22:11:49.007Z,95.07
2023-03-03T22:14:16.385Z,95.21
2023-03-03T22:16:43.530Z,95.84
2023-03-03T22:19:10.479Z,95.97
2023-03-03T22:21:38.763Z,95.82
2023-03-03T22:24:06.404Z,96.20
2023-03-03T22:26:34.057Z,96.21
2023-03-03T22:29:01.301Z,96.53
2023-03-03T22:31:28.261Z,96.32
2023-03-03T22:33:55.397Z,96.58
2023-03-03T22:36:22.217Z,96.88
2023-03-03T22:38:49.295Z,97.02
2023-03-03T22:41:17.405Z,97.52
2023-03-03T22:43:44.424Z,97.72
2023-03-03T22:46:12.265Z,98.12
2023-03-03T22:48:39.666Z,97.90
2023-03-03T22:51:07.022Z,98.09
2023-03-03T22:53:33.957Z,98.28
2023-03-03T22:56:01.063Z,97.97
2023-03-03T22:58:29.524Z,98.25
2023-03-03T23:00:56.826Z,98.52
2023-03-03T23:03:24.306Z,98.33
2023-03-03T23:05:52.135Z,98.59
2023-03-03T23:08:20.794Z,99.07
2023-03-03T23:10:49.093Z,99.62
2023-03-03T23:13:16.872Z,99.93
2023-03-03T23:15:43.982Z,100.00
2023-03-03T23:18:11.366Z,100.00
2023-03-03T23:20:38.368Z,100.00
2023-03-03T23:23:05.307Z,100.00
2023-03-03T23:25:32.326Z,100.00
2023-03-03T23:27:59.308Z,99.46
2023-03-03T23:30:26.450Z,99.86
2023-03-03T23:32:53.726Z,99.33
2023-03-03T23:35:20.837Z,99.58
2023-03-03T23:37:47.943Z,99.38
2023-03-03T23:40:16.414Z,99.22
2023-03-03T23:42:43.986Z,98.67
2023-03-03T23:45:12.077Z,98.58
2023-03-03T23:47:39.046Z,98.30
2023-03-03T23:50:06.576Z,98.05
2023-03-03T23:52:33.459Z,97.61
2023-03-03T23:55:01.077Z,97.33
2023-03-03T23:57:28.110Z,97.11
2023-03-03T23:59:55.051Z,97.54
